St. Cloud, MN

7:30 AM CDT on July 17, 2019 (GMT -0500)
Saint Cloud Regional

Weather History for KSTC - May, 2019

Change the Weather History Date:

Wednesday, May 22, 2019

  Actual Average Record
Temperature  
Mean Temperature 51 °F 58 °F  
Max Temperature 57 °F 71 °F 94 °F (1964)
Min Temperature 45 °F 46 °F 28 °F (1963)
Degree Days  
Heating Degree Days 14 8  
Month to date heating degree days 344 230  
Since 1 July heating degree days 9142 8397  
Cooling Degree Days 0 1  
Month to date cooling degree days 0 14  
Year to date cooling degree days 0 16  
Growing Degree Days 1 (Base 50)    
Moisture  
Dew Point 48 °F    
Average Humidity 92    
Maximum Humidity 100    
Minimum Humidity 77    
Precipitation  
Precipitation 0.73 in 0.10 in 3.17 in (1962)
Month to date precipitation 5.72 2.06  
Year to date precipitation 13.07 7.42  
Snow  
Snow 0.00 in 0.00 in 0.00 in ()
Month to date snowfall 0.4 0.0  
Since 1 July snowfall 68.9 45.7  
Snow Depth 0.00 in    
Sea Level Pressure  
Sea Level Pressure 29.58 in    
Wind  
Wind Speed 12 mph ()    
Max Wind Speed 28 mph    
Max Gust Speed 40 mph    
Visibility 5.6 miles    
Events Rain    
T = Trace of Precipitation, MM = Missing Value Source: Averaged Metar Reports

Daily Weather History Graph

Daily Weather History Graph

Search for Another Location

Airport or City:

Astronomy

May. 22, 2019 Rise Set
Actual Time 5:38 AM CDT 8:48 PM CDT
Civil Twilight 5:02 AM CDT 9:23 PM CDT
Nautical Twilight 4:16 AM CDT 10:10 PM CDT
Astronomical Twilight 3:20 AM CDT 11:06 PM CDT
Moon No Moon Rise 8:45 AM CDT (5/22)
Length of Visible Light 16h 21m
Length of Day
15h 09m
Waning Gibbous, 85% of the Moon is Illuminated
May 22
Waning Gibbous
May 26
Last Quarter
Jun 3
New
Jun 10
First Quarter
Jun 17
Full

Hourly Weather History & Observations

Time (CDT) Temp. Windchill Dew Point Humidity Pressure Visibility Wind Dir Wind Speed Gust Speed Precip Events Conditions
12:01 AM 45.0 °F 38.5 °F 43.0 °F 93% 29.74 in 3.0 mi East 13.8 mph 25.3 mph 0.02 in Rain Light Rain
12:14 AM 46.0 °F 40.6 °F 43.0 °F 89% 29.73 in 4.0 mi East 11.5 mph 25.3 mph 0.04 in Rain Light Rain
12:39 AM 45.0 °F 38.5 °F 44.1 °F 97% 29.72 in 4.0 mi East 13.8 mph 26.5 mph 0.08 in Rain Light Rain
12:53 AM 45.0 °F 38.2 °F 44.1 °F 97% 29.74 in 4.0 mi East 15.0 mph 24.2 mph 0.10 in Rain Rain
1:15 AM 46.0 °F 39.3 °F 44.1 °F 93% 29.68 in 2.5 mi East 16.1 mph 27.6 mph 0.03 in Rain Light Rain
1:24 AM 46.0 °F 39.3 °F 44.1 °F 93% 29.68 in 3.0 mi East 16.1 mph 27.6 mph 0.03 in Rain Light Rain
1:53 AM 46.0 °F 40.2 °F 44.1 °F 93% 29.70 in 6.0 mi East 12.7 mph 29.9 mph 0.06 in Rain Light Rain
2:34 AM 46.0 °F 39.6 °F 44.1 °F 93% 29.63 in 4.0 mi East 15.0 mph 32.2 mph 0.02 in Rain Light Rain
2:53 AM 46.0 °F 39.3 °F 44.1 °F 93% 29.65 in 8.0 mi East 16.1 mph 28.8 mph 0.03 in   Overcast
3:01 AM 46.0 °F 40.6 °F 44.1 °F 93% 29.62 in 5.0 mi East 11.5 mph 25.3 mph N/A   Overcast
3:12 AM 46.0 °F 41.0 °F 44.1 °F 93% 29.63 in 2.5 mi East 10.4 mph 24.2 mph N/A   Overcast
3:17 AM 46.0 °F 40.6 °F 44.1 °F 93% 29.62 in 3.0 mi East 11.5 mph 20.7 mph 0.00 in Rain Light Rain
3:46 AM 46.0 °F 40.2 °F 45.0 °F 96% 29.61 in 4.0 mi East 12.7 mph 21.9 mph 0.00 in   Overcast
3:53 AM 46.0 °F 40.6 °F 45.0 °F 96% 29.64 in 3.0 mi East 11.5 mph 21.9 mph 0.00 in   Overcast
4:53 AM 46.9 °F - 45.0 °F 93% 29.61 in 7.0 mi East 11.5 mph 27.6 mph 0.00 in Rain Light Rain
5:39 AM 46.9 °F - 46.0 °F 97% 29.56 in 2.5 mi East 12.7 mph 21.9 mph 0.00 in   Overcast
5:50 AM 46.4 °F 40.7 °F 44.6 °F 93% 29.55 in 3.0 mi East 12.7 mph 26.5 mph 0.00 in   Overcast
5:53 AM 46.9 °F - 45.0 °F 93% 29.58 in 3.0 mi East 11.5 mph 26.5 mph 0.00 in   Overcast
6:28 AM 46.9 °F - 46.0 °F 97% 29.54 in 2.5 mi East 11.5 mph 20.7 mph 0.01 in Rain Light Rain
6:38 AM 46.9 °F - 46.0 °F 97% 29.54 in 5.0 mi East 11.5 mph 25.3 mph 0.03 in Rain Light Rain
6:51 AM 46.4 °F 41.1 °F 46.4 °F 100% 29.54 in 1.8 mi East 11.5 mph 21.9 mph 0.04 in Rain Light Rain
6:53 AM 46.9 °F - 46.0 °F 97% 29.57 in 1.8 mi East 10.4 mph 20.7 mph 0.05 in Rain Rain
7:01 AM 46.9 °F - 46.0 °F 97% 29.53 in 2.5 mi East 11.5 mph - 0.02 in Rain Light Rain
7:24 AM 46.9 °F - 46.0 °F 97% 29.52 in 5.0 mi East 13.8 mph 20.7 mph 0.08 in Rain Light Rain
7:53 AM 48.0 °F - 46.0 °F 93% 29.55 in 4.0 mi East 12.7 mph 26.5 mph 0.08 in Rain Light Rain
8:53 AM 48.9 °F - 46.9 °F 93% 29.54 in 6.0 mi East 12.7 mph 21.9 mph 0.02 in Rain Light Rain
9:43 AM 50.0 °F - 48.0 °F 93% 29.49 in 10.0 mi East 13.8 mph 27.6 mph 0.00 in   Overcast
9:53 AM 50.0 °F - 48.0 °F 93% 29.52 in 10.0 mi East 13.8 mph 27.6 mph 0.00 in   Overcast
10:03 AM 50.0 °F - 48.0 °F 93% 29.48 in 10.0 mi East 10.4 mph 24.2 mph N/A   Overcast
10:11 AM 50.0 °F - 48.0 °F 93% 29.49 in 10.0 mi East 9.2 mph 24.2 mph N/A   Overcast
10:53 AM 51.1 °F - 48.9 °F 92% 29.52 in 4.0 mi East 6.9 mph 18.4 mph 0.00 in Rain Light Rain
11:04 AM 51.1 °F - 48.9 °F 92% 29.48 in 6.0 mi East 9.2 mph - 0.01 in Rain Light Rain
11:29 AM 52.0 °F - 50.0 °F 93% 29.48 in 5.0 mi SE 11.5 mph 18.4 mph 0.04 in Rain Light Rain
11:37 AM 52.0 °F - 51.1 °F 97% 29.48 in 3.0 mi ESE 9.2 mph - 0.06 in Rain Rain
11:42 AM 52.0 °F - 51.1 °F 97% 29.48 in 2.5 mi ESE 8.1 mph 18.4 mph 0.07 in Rain Rain
11:44 AM 52.0 °F - 51.1 °F 97% 29.48 in 3.0 mi ESE 8.1 mph 18.4 mph 0.09 in Rain Rain
11:47 AM 51.8 °F - 51.8 °F 100% 29.48 in 3.0 mi ESE 9.2 mph 18.4 mph 0.09 in Rain Light Rain
11:53 AM 52.0 °F - 51.1 °F 97% 29.52 in 3.0 mi ESE 9.2 mph - 0.10 in Rain Rain
11:57 AM 52.0 °F - 51.1 °F 97% 29.49 in 2.0 mi ESE 8.1 mph - 0.03 in Rain Heavy Rain
12:04 PM 52.0 °F - 51.1 °F 97% 29.50 in 1.5 mi SSE 17.3 mph 25.3 mph 0.07 in Rain Rain
12:13 PM 53.1 °F - 51.1 °F 93% 29.50 in 3.0 mi SSE 12.7 mph 25.3 mph 0.12 in Rain Light Rain
12:21 PM 54.0 °F - 51.1 °F 90% 29.50 in 9.0 mi SSE 13.8 mph 21.9 mph 0.13 in Rain Light Rain
12:33 PM 54.0 °F - 51.1 °F 90% 29.50 in 10.0 mi SSE 15.0 mph - 0.13 in Rain Light Rain
12:43 PM 53.1 °F - 51.1 °F 93% 29.50 in 3.0 mi South 11.5 mph - 0.15 in Rain Rain
12:47 PM 53.6 °F - 51.8 °F 94% 29.50 in 1.8 mi South 13.8 mph 23.0 mph 0.17 in Rain Heavy Rain
12:53 PM 53.1 °F - 50.0 °F 89% 29.54 in 2.5 mi South 15.0 mph 25.3 mph 0.19 in Rain Light Rain
1:01 PM 54.0 °F - 51.1 °F 90% 29.50 in 9.0 mi South 15.0 mph - 0.00 in Rain Light Rain
1:16 PM 55.0 °F - 52.0 °F 89% 29.50 in 9.0 mi South 13.8 mph 24.2 mph 0.00 in   Overcast
1:23 PM 55.0 °F - 51.1 °F 86% 29.50 in 6.0 mi South 17.3 mph 29.9 mph 0.01 in Rain Light Rain
1:53 PM 57.0 °F - 52.0 °F 83% 29.54 in 10.0 mi South 16.1 mph 26.5 mph 0.02 in   Mostly Cloudy
2:12 PM 55.9 °F - 51.1 °F 84% 29.52 in 7.0 mi South 27.6 mph 39.1 mph 0.00 in Rain Light Rain
2:35 PM 55.9 °F - 51.1 °F 84% 29.52 in 10.0 mi South 20.7 mph 32.2 mph 0.00 in   Overcast
2:53 PM 55.9 °F - 51.1 °F 84% 29.57 in 10.0 mi South 23.0 mph 39.1 mph 0.00 in   Overcast
3:19 PM 54.0 °F - 50.0 °F 86% 29.54 in 3.0 mi South 19.6 mph 27.6 mph 0.00 in Rain Light Rain
3:53 PM 55.0 °F - 48.9 °F 80% 29.59 in 10.0 mi South 18.4 mph - 0.01 in   Overcast
4:53 PM 55.9 °F - 50.0 °F 80% 29.60 in 10.0 mi South 17.3 mph - N/A   Overcast
5:44 PM 55.0 °F - 51.1 °F 86% 29.58 in 10.0 mi SSE 12.7 mph 24.2 mph N/A   Overcast
5:53 PM 55.0 °F - 52.0 °F 89% 29.62 in 6.0 mi South 9.2 mph 23.0 mph N/A   Overcast
6:05 PM 54.0 °F - 52.0 °F 93% 29.59 in 6.0 mi SSE 9.2 mph - N/A   Overcast
6:18 PM 54.0 °F - 52.0 °F 93% 29.59 in 6.0 mi SSE 11.5 mph - N/A   Overcast
6:37 PM 54.0 °F - 52.0 °F 93% 29.59 in 3.0 mi SSE 12.7 mph - 0.00 in Rain Rain
6:53 PM 54.0 °F - 52.0 °F 93% 29.64 in 4.0 mi South 15.0 mph 25.3 mph 0.04 in Rain Light Rain
7:06 PM 54.0 °F - 51.1 °F 90% 29.61 in 4.0 mi SSW 15.0 mph 28.8 mph 0.02 in Rain Light Rain
7:41 PM 54.0 °F - 50.0 °F 86% 29.62 in 10.0 mi South 16.1 mph 25.3 mph 0.03 in   Overcast
7:53 PM 53.1 °F - 50.0 °F 89% 29.66 in 10.0 mi SSW 18.4 mph - 0.03 in Rain Light Rain
8:53 PM 53.1 °F - 48.9 °F 86% 29.69 in 10.0 mi South 12.7 mph - 0.00 in   Overcast
9:53 PM 53.1 °F - 48.9 °F 86% 29.71 in 10.0 mi SSW 11.5 mph - N/A   Overcast
10:53 PM 53.1 °F - 48.9 °F 86% 29.72 in 10.0 mi SSW 10.4 mph - N/A   Overcast
11:53 PM 53.1 °F - 50.0 °F 89% 29.74 in 10.0 mi SW 12.7 mph 21.9 mph N/A   Overcast